AUA75U LATI-LOWW
Flight info
| Callsign | AUA75U |
|---|---|
| Flight time | 1h 13m |
| Altitude | 34000 |
| Route | INLOT DCT RETRA DCT OBUTI OBUTI2W |
| Aircraft | A320/M-SDE3FGHIRWY/LB1 |
Departure
| Time | 2026-05-07 10:06 |
|---|---|
| Airport | Tirana International Airport Mother Teresa (LATI) |
Arrival
| Time | 2026-05-07 11:19 |
|---|---|
| Airport | Vienna International Airport (LOWW) |
| Time | Latitude | Longitude | Altitude | Speed | Heading |
|---|---|---|---|---|---|
| 2026-05-07 09:24 | 41.42302 | 19.71472 | 148 ft | 0 kts | 265° |
| 2026-05-07 09:59 | 41.42303 | 19.71488 | 119 ft | 4 kts | 271° |
| 2026-05-07 09:59 | 41.42298 | 19.71522 | 120 ft | 4 kts | 307° |
| 2026-05-07 10:00 | 41.42283 | 19.71537 | 120 ft | 0 kts | 353° |
| 2026-05-07 10:03 | 41.42300 | 19.71535 | 119 ft | 8 kts | 353° |
| 2026-05-07 10:03 | 41.42378 | 19.71524 | 119 ft | 12 kts | 354° |
| 2026-05-07 10:03 | 41.42460 | 19.71512 | 117 ft | 12 kts | 354° |
| 2026-05-07 10:03 | 41.42538 | 19.71501 | 119 ft | 11 kts | 354° |
| 2026-05-07 10:04 | 41.42612 | 19.71492 | 115 ft | 10 kts | 354° |
| 2026-05-07 10:04 | 41.42666 | 19.71528 | 115 ft | 9 kts | 68° |
| 2026-05-07 10:04 | 41.42678 | 19.71633 | 118 ft | 15 kts | 83° |
| 2026-05-07 10:04 | 41.42688 | 19.71782 | 118 ft | 17 kts | 86° |
| 2026-05-07 10:05 | 41.42662 | 19.71901 | 116 ft | 13 kts | 157° |
| 2026-05-07 10:05 | 41.42500 | 19.71923 | 114 ft | 49 kts | 174° |
| 2026-05-07 10:05 | 41.41926 | 19.71998 | 119 ft | 114 kts | 174° |
| 2026-05-07 10:05 | 41.40992 | 19.72114 | 367 ft | 139 kts | 176° |
| 2026-05-07 10:06 | 41.40054 | 19.72224 | 1037 ft | 136 kts | 173° |
| 2026-05-07 10:06 | 41.39093 | 19.72350 | 1537 ft | 140 kts | 173° |
| 2026-05-07 10:06 | 41.38122 | 19.72472 | 2128 ft | 145 kts | 171° |
| 2026-05-07 10:06 | 41.37018 | 19.72629 | 2470 ft | 176 kts | 173° |
| 2026-05-07 10:07 | 41.35716 | 19.72812 | 2910 ft | 202 kts | 175° |
| 2026-05-07 10:07 | 41.34235 | 19.73015 | 3424 ft | 225 kts | 174° |
| 2026-05-07 10:07 | 41.32592 | 19.73240 | 4032 ft | 248 kts | 174° |
| 2026-05-07 10:07 | 41.30843 | 19.73476 | 4986 ft | 255 kts | 175° |
| 2026-05-07 10:08 | 41.29665 | 19.73632 | 5597 ft | 260 kts | 177° |
| 2026-05-07 10:08 | 41.27853 | 19.73459 | 6426 ft | 266 kts | 200° |
| 2026-05-07 10:08 | 41.26232 | 19.72299 | 7167 ft | 269 kts | 218° |
| 2026-05-07 10:08 | 41.25019 | 19.70398 | 7962 ft | 273 kts | 238° |
| 2026-05-07 10:09 | 41.24404 | 19.68018 | 8866 ft | 274 kts | 258° |
| 2026-05-07 10:09 | 41.24480 | 19.65501 | 9847 ft | 274 kts | 278° |
| 2026-05-07 10:09 | 41.25236 | 19.63186 | 10782 ft | 276 kts | 297° |
| 2026-05-07 10:09 | 41.26580 | 19.61354 | 11731 ft | 279 kts | 316° |
| 2026-05-07 10:10 | 41.28331 | 19.60255 | 12705 ft | 281 kts | 336° |
| 2026-05-07 10:10 | 41.30352 | 19.59889 | 13000 ft | 312 kts | 352° |
| 2026-05-07 10:10 | 41.32623 | 19.60273 | 13141 ft | 340 kts | 1° |
| 2026-05-07 10:10 | 41.35023 | 19.60541 | 13555 ft | 352 kts | 352° |
| 2026-05-07 10:11 | 41.37471 | 19.60289 | 14100 ft | 359 kts | 347° |
| 2026-05-07 10:11 | 41.39990 | 19.59936 | 14654 ft | 366 kts | 347° |
| 2026-05-07 10:11 | 41.42502 | 19.59493 | 15502 ft | 361 kts | 348° |
| 2026-05-07 10:11 | 41.44974 | 19.58856 | 16307 ft | 362 kts | 344° |
| 2026-05-07 10:12 | 41.47436 | 19.58126 | 17011 ft | 365 kts | 343° |
| 2026-05-07 10:12 | 41.49925 | 19.57376 | 17714 ft | 368 kts | 343° |
| 2026-05-07 10:12 | 41.52441 | 19.56653 | 18399 ft | 372 kts | 344° |
| 2026-05-07 10:12 | 41.54990 | 19.55968 | 18980 ft | 376 kts | 345° |
| 2026-05-07 10:13 | 41.57575 | 19.55312 | 19530 ft | 380 kts | 345° |
| 2026-05-07 10:13 | 41.60192 | 19.54673 | 20081 ft | 384 kts | 345° |
| 2026-05-07 10:13 | 41.62835 | 19.54035 | 20625 ft | 389 kts | 345° |
| 2026-05-07 10:13 | 41.65509 | 19.53387 | 21162 ft | 393 kts | 345° |
| 2026-05-07 10:14 | 41.68215 | 19.52726 | 21705 ft | 397 kts | 345° |
| 2026-05-07 10:14 | 41.70947 | 19.52049 | 22253 ft | 401 kts | 345° |
| 2026-05-07 10:14 | 41.73707 | 19.51362 | 22792 ft | 405 kts | 345° |
| 2026-05-07 10:14 | 41.76492 | 19.50666 | 23337 ft | 409 kts | 345° |
| 2026-05-07 10:15 | 41.79296 | 19.49964 | 23838 ft | 413 kts | 345° |
| 2026-05-07 10:15 | 41.82130 | 19.49253 | 24284 ft | 416 kts | 345° |
| 2026-05-07 10:15 | 41.84988 | 19.48532 | 24734 ft | 419 kts | 345° |
| 2026-05-07 10:15 | 41.87865 | 19.47808 | 25183 ft | 421 kts | 345° |
| 2026-05-07 10:16 | 41.90755 | 19.47085 | 25615 ft | 424 kts | 345° |
| 2026-05-07 10:16 | 41.93667 | 19.46359 | 26041 ft | 427 kts | 345° |
| 2026-05-07 10:16 | 41.96596 | 19.45626 | 26456 ft | 429 kts | 345° |
| 2026-05-07 10:16 | 41.99469 | 19.44594 | 26843 ft | 428 kts | 337° |
| 2026-05-07 10:17 | 42.02291 | 19.43274 | 27247 ft | 430 kts | 336° |
| 2026-05-07 10:17 | 42.05125 | 19.41932 | 27641 ft | 433 kts | 336° |
| 2026-05-07 10:17 | 42.07935 | 19.40592 | 28024 ft | 435 kts | 336° |
| 2026-05-07 10:17 | 42.10798 | 19.39223 | 28388 ft | 438 kts | 336° |
| 2026-05-07 10:18 | 42.13678 | 19.37846 | 28753 ft | 441 kts | 336° |
| 2026-05-07 10:18 | 42.16579 | 19.36460 | 29115 ft | 443 kts | 336° |
| 2026-05-07 10:18 | 42.19494 | 19.35071 | 29470 ft | 446 kts | 336° |
| 2026-05-07 10:18 | 42.22413 | 19.33657 | 29822 ft | 447 kts | 334° |
| 2026-05-07 10:19 | 42.25223 | 19.31866 | 30165 ft | 447 kts | 329° |
| 2026-05-07 10:19 | 42.28040 | 19.29940 | 30448 ft | 449 kts | 329° |
| 2026-05-07 10:19 | 42.30834 | 19.28029 | 30715 ft | 451 kts | 329° |
| 2026-05-07 10:19 | 42.33606 | 19.26133 | 30974 ft | 453 kts | 329° |
| 2026-05-07 10:20 | 42.36424 | 19.24207 | 31231 ft | 455 kts | 329° |
| 2026-05-07 10:20 | 42.39287 | 19.22246 | 31490 ft | 457 kts | 329° |
| 2026-05-07 10:20 | 42.42131 | 19.20295 | 31737 ft | 459 kts | 329° |
| 2026-05-07 10:20 | 42.44974 | 19.18346 | 32101 ft | 458 kts | 329° |
| 2026-05-07 10:21 | 42.47776 | 19.16423 | 32468 ft | 457 kts | 329° |
| 2026-05-07 10:21 | 42.50617 | 19.14467 | 32845 ft | 457 kts | 329° |
| 2026-05-07 10:21 | 42.53447 | 19.12516 | 33219 ft | 456 kts | 329° |
| 2026-05-07 10:21 | 42.56272 | 19.10569 | 33573 ft | 456 kts | 329° |
| 2026-05-07 10:22 | 42.59095 | 19.08621 | 33922 ft | 455 kts | 329° |
| 2026-05-07 10:22 | 42.61917 | 19.06676 | 34127 ft | 454 kts | 329° |
| 2026-05-07 10:22 | 42.64691 | 19.04765 | 34159 ft | 445 kts | 329° |
| 2026-05-07 10:23 | 42.70164 | 19.00981 | 34157 ft | 439 kts | 329° |
| 2026-05-07 10:23 | 42.75607 | 18.97205 | 34152 ft | 438 kts | 329° |
| 2026-05-07 10:24 | 42.81041 | 18.93429 | 34152 ft | 438 kts | 329° |
| 2026-05-07 10:24 | 42.86460 | 18.89650 | 34152 ft | 437 kts | 328° |
| 2026-05-07 10:25 | 42.91900 | 18.85847 | 34151 ft | 437 kts | 328° |
| 2026-05-07 10:25 | 42.97318 | 18.82057 | 34151 ft | 437 kts | 328° |
| 2026-05-07 10:26 | 43.02689 | 18.78290 | 34142 ft | 435 kts | 328° |
| 2026-05-07 10:26 | 43.08076 | 18.74514 | 34141 ft | 435 kts | 328° |
| 2026-05-07 10:27 | 43.13460 | 18.70725 | 34133 ft | 435 kts | 328° |
| 2026-05-07 10:27 | 43.18844 | 18.66922 | 34127 ft | 435 kts | 328° |
| 2026-05-07 10:28 | 43.24228 | 18.63118 | 34114 ft | 435 kts | 328° |
| 2026-05-07 10:28 | 43.29598 | 18.59331 | 34110 ft | 435 kts | 328° |
| 2026-05-07 10:29 | 43.34983 | 18.55517 | 34110 ft | 434 kts | 328° |
| 2026-05-07 10:29 | 43.40346 | 18.51704 | 34109 ft | 434 kts | 328° |
| 2026-05-07 10:30 | 43.48377 | 18.45982 | 34105 ft | 433 kts | 328° |
| 2026-05-07 10:30 | 43.53721 | 18.42161 | 34100 ft | 432 kts | 328° |
| 2026-05-07 10:31 | 43.59057 | 18.38343 | 34093 ft | 432 kts | 328° |
| 2026-05-07 10:31 | 43.64390 | 18.34520 | 34089 ft | 431 kts | 328° |
| 2026-05-07 10:32 | 43.69714 | 18.30706 | 34085 ft | 431 kts | 328° |
| 2026-05-07 10:32 | 43.75031 | 18.26884 | 34082 ft | 431 kts | 328° |
| 2026-05-07 10:33 | 43.80344 | 18.23046 | 34080 ft | 430 kts | 328° |
| 2026-05-07 10:33 | 43.85649 | 18.19208 | 34082 ft | 430 kts | 328° |
| 2026-05-07 10:34 | 43.90950 | 18.15364 | 34083 ft | 430 kts | 328° |
| 2026-05-07 10:34 | 43.96250 | 18.11526 | 34082 ft | 429 kts | 328° |
| 2026-05-07 10:35 | 44.01538 | 18.07689 | 34079 ft | 429 kts | 328° |
| 2026-05-07 10:35 | 44.06814 | 18.03836 | 34079 ft | 428 kts | 328° |
| 2026-05-07 10:36 | 44.12090 | 17.99975 | 34076 ft | 428 kts | 328° |
| 2026-05-07 10:36 | 44.17351 | 17.96126 | 34078 ft | 427 kts | 328° |
| 2026-05-07 10:37 | 44.22620 | 17.92272 | 34074 ft | 427 kts | 328° |
| 2026-05-07 10:37 | 44.27882 | 17.88420 | 34058 ft | 427 kts | 328° |
| 2026-05-07 10:38 | 44.33135 | 17.84554 | 34065 ft | 427 kts | 327° |
| 2026-05-07 10:38 | 44.38382 | 17.80671 | 34064 ft | 426 kts | 327° |
| 2026-05-07 10:39 | 44.43627 | 17.76796 | 34056 ft | 426 kts | 327° |
| 2026-05-07 10:39 | 44.48838 | 17.72945 | 34063 ft | 426 kts | 327° |
| 2026-05-07 10:40 | 44.54078 | 17.69062 | 34056 ft | 426 kts | 327° |
| 2026-05-07 10:40 | 44.59303 | 17.65168 | 34057 ft | 425 kts | 327° |
| 2026-05-07 10:41 | 44.64492 | 17.61299 | 34052 ft | 425 kts | 327° |
| 2026-05-07 10:41 | 44.69707 | 17.57400 | 34054 ft | 424 kts | 327° |
| 2026-05-07 10:42 | 44.74913 | 17.53510 | 34057 ft | 424 kts | 327° |
| 2026-05-07 10:42 | 44.80120 | 17.49614 | 34057 ft | 424 kts | 327° |
| 2026-05-07 10:43 | 44.85320 | 17.45708 | 34054 ft | 423 kts | 327° |
| 2026-05-07 10:43 | 44.90508 | 17.41797 | 34058 ft | 423 kts | 326° |
| 2026-05-07 10:44 | 44.95693 | 17.37883 | 34057 ft | 422 kts | 326° |
| 2026-05-07 10:44 | 45.00884 | 17.33965 | 34061 ft | 422 kts | 326° |
| 2026-05-07 10:45 | 45.06055 | 17.30054 | 34059 ft | 421 kts | 326° |
| 2026-05-07 10:45 | 45.11216 | 17.26132 | 34051 ft | 421 kts | 326° |
| 2026-05-07 10:46 | 45.16376 | 17.22203 | 34055 ft | 421 kts | 326° |
| 2026-05-07 10:46 | 45.21527 | 17.18267 | 34057 ft | 420 kts | 326° |
| 2026-05-07 10:47 | 45.26667 | 17.14340 | 34055 ft | 420 kts | 326° |
| 2026-05-07 10:47 | 45.30957 | 17.11059 | 34056 ft | 420 kts | 326° |
| 2026-05-07 10:48 | 45.36935 | 17.06481 | 34055 ft | 420 kts | 326° |
| 2026-05-07 10:48 | 45.41244 | 17.03169 | 34056 ft | 420 kts | 326° |
| 2026-05-07 10:49 | 45.46380 | 16.99216 | 34054 ft | 420 kts | 325° |
| 2026-05-07 10:49 | 45.51520 | 16.95248 | 34054 ft | 420 kts | 325° |
| 2026-05-07 10:50 | 45.56645 | 16.91294 | 34049 ft | 419 kts | 325° |
| 2026-05-07 10:50 | 45.61731 | 16.87359 | 34051 ft | 419 kts | 325° |
| 2026-05-07 10:51 | 45.66881 | 16.83348 | 34047 ft | 419 kts | 325° |
| 2026-05-07 10:51 | 45.71994 | 16.79368 | 34045 ft | 419 kts | 325° |
| 2026-05-07 10:52 | 45.77116 | 16.75382 | 34039 ft | 419 kts | 325° |
| 2026-05-07 10:52 | 45.82198 | 16.71415 | 34036 ft | 419 kts | 325° |
| 2026-05-07 10:53 | 45.87314 | 16.67417 | 34035 ft | 419 kts | 325° |
| 2026-05-07 10:53 | 45.92433 | 16.63403 | 34038 ft | 419 kts | 325° |
| 2026-05-07 10:54 | 45.97541 | 16.59377 | 34033 ft | 419 kts | 324° |
| 2026-05-07 10:54 | 46.02653 | 16.55340 | 34038 ft | 419 kts | 324° |
| 2026-05-07 10:55 | 46.07770 | 16.51299 | 34033 ft | 419 kts | 324° |
| 2026-05-07 10:55 | 46.12876 | 16.47266 | 34030 ft | 419 kts | 324° |
| 2026-05-07 10:56 | 46.17989 | 16.43216 | 34034 ft | 418 kts | 324° |
| 2026-05-07 10:56 | 46.23080 | 16.39178 | 34038 ft | 418 kts | 324° |
| 2026-05-07 10:57 | 46.28167 | 16.35117 | 34037 ft | 417 kts | 324° |
| 2026-05-07 10:57 | 46.33242 | 16.31067 | 34039 ft | 416 kts | 324° |
| 2026-05-07 10:58 | 46.38496 | 16.27485 | 34015 ft | 425 kts | 336° |
| 2026-05-07 10:58 | 46.41404 | 16.26527 | 33742 ft | 432 kts | 344° |
| 2026-05-07 10:58 | 46.44376 | 16.25846 | 33470 ft | 431 kts | 344° |
| 2026-05-07 10:59 | 46.47328 | 16.25160 | 33194 ft | 429 kts | 344° |
| 2026-05-07 10:59 | 46.50265 | 16.24470 | 32926 ft | 427 kts | 344° |
| 2026-05-07 10:59 | 46.53187 | 16.23776 | 32650 ft | 424 kts | 344° |
| 2026-05-07 10:59 | 46.56083 | 16.23086 | 32154 ft | 421 kts | 344° |
| 2026-05-07 11:00 | 46.58965 | 16.22397 | 31613 ft | 418 kts | 344° |
| 2026-05-07 11:00 | 46.61821 | 16.21713 | 31102 ft | 416 kts | 345° |
| 2026-05-07 11:00 | 46.64679 | 16.21031 | 30584 ft | 414 kts | 345° |
| 2026-05-07 11:00 | 46.67515 | 16.20353 | 30066 ft | 412 kts | 346° |
| 2026-05-07 11:01 | 46.70343 | 16.19678 | 29521 ft | 410 kts | 346° |
| 2026-05-07 11:01 | 46.73139 | 16.19013 | 29018 ft | 406 kts | 346° |
| 2026-05-07 11:01 | 46.75942 | 16.18346 | 27953 ft | 410 kts | 346° |
| 2026-05-07 11:01 | 46.78763 | 16.17671 | 26817 ft | 411 kts | 346° |
| 2026-05-07 11:02 | 46.81592 | 16.16993 | 25721 ft | 412 kts | 347° |
| 2026-05-07 11:02 | 46.84411 | 16.16313 | 24885 ft | 407 kts | 347° |
| 2026-05-07 11:02 | 46.87179 | 16.15648 | 24405 ft | 402 kts | 347° |
| 2026-05-07 11:02 | 46.89939 | 16.14985 | 23895 ft | 401 kts | 347° |
| 2026-05-07 11:03 | 46.92689 | 16.14324 | 23357 ft | 400 kts | 347° |
| 2026-05-07 11:03 | 46.95422 | 16.13667 | 22845 ft | 397 kts | 347° |
| 2026-05-07 11:03 | 46.98142 | 16.13014 | 22347 ft | 394 kts | 347° |
| 2026-05-07 11:03 | 47.00842 | 16.12364 | 21872 ft | 391 kts | 347° |
| 2026-05-07 11:04 | 47.03523 | 16.11717 | 21387 ft | 389 kts | 347° |
| 2026-05-07 11:04 | 47.06182 | 16.11073 | 20915 ft | 386 kts | 347° |
| 2026-05-07 11:04 | 47.08827 | 16.10428 | 20445 ft | 384 kts | 347° |
| 2026-05-07 11:04 | 47.11450 | 16.09790 | 19981 ft | 382 kts | 347° |
| 2026-05-07 11:05 | 47.14071 | 16.09155 | 19519 ft | 379 kts | 347° |
| 2026-05-07 11:05 | 47.16669 | 16.08527 | 19069 ft | 378 kts | 347° |
| 2026-05-07 11:05 | 47.19254 | 16.07903 | 18618 ft | 375 kts | 347° |
| 2026-05-07 11:05 | 47.21824 | 16.07278 | 18154 ft | 374 kts | 347° |
| 2026-05-07 11:06 | 47.24393 | 16.06652 | 17688 ft | 371 kts | 347° |
| 2026-05-07 11:06 | 47.26900 | 16.06041 | 17260 ft | 368 kts | 347° |
| 2026-05-07 11:06 | 47.29450 | 16.05419 | 16825 ft | 365 kts | 347° |
| 2026-05-07 11:06 | 47.31912 | 16.04819 | 16401 ft | 362 kts | 347° |
| 2026-05-07 11:07 | 47.34448 | 16.04445 | 15964 ft | 364 kts | 358° |
| 2026-05-07 11:07 | 47.36956 | 16.04955 | 15546 ft | 366 kts | 13° |
| 2026-05-07 11:07 | 47.39305 | 16.06368 | 15131 ft | 367 kts | 29° |
| 2026-05-07 11:07 | 47.41414 | 16.08533 | 14694 ft | 367 kts | 37° |
| 2026-05-07 11:08 | 47.43445 | 16.10782 | 14265 ft | 366 kts | 37° |
| 2026-05-07 11:08 | 47.45483 | 16.13034 | 13833 ft | 364 kts | 36° |
| 2026-05-07 11:08 | 47.47511 | 16.15269 | 13372 ft | 363 kts | 36° |
| 2026-05-07 11:08 | 47.49537 | 16.17502 | 12928 ft | 361 kts | 36° |
| 2026-05-07 11:09 | 47.51530 | 16.19704 | 12494 ft | 357 kts | 36° |
| 2026-05-07 11:09 | 47.53506 | 16.21897 | 12056 ft | 355 kts | 36° |
| 2026-05-07 11:09 | 47.55479 | 16.24089 | 11628 ft | 352 kts | 36° |
| 2026-05-07 11:09 | 47.57404 | 16.26232 | 11479 ft | 341 kts | 36° |
| 2026-05-07 11:10 | 47.59272 | 16.28313 | 11331 ft | 330 kts | 36° |
| 2026-05-07 11:10 | 47.61097 | 16.30342 | 11047 ft | 326 kts | 36° |
| 2026-05-07 11:10 | 47.62908 | 16.32358 | 10669 ft | 325 kts | 36° |
| 2026-05-07 11:10 | 47.64696 | 16.34349 | 10116 ft | 320 kts | 36° |
| 2026-05-07 11:11 | 47.66467 | 16.36322 | 9457 ft | 317 kts | 36° |
| 2026-05-07 11:11 | 47.68212 | 16.38267 | 8784 ft | 312 kts | 36° |
| 2026-05-07 11:11 | 47.69942 | 16.40195 | 8140 ft | 307 kts | 37° |
| 2026-05-07 11:11 | 47.71597 | 16.42041 | 7687 ft | 297 kts | 37° |
| 2026-05-07 11:12 | 47.73279 | 16.43917 | 7234 ft | 299 kts | 37° |
| 2026-05-07 11:12 | 47.74942 | 16.45775 | 6776 ft | 300 kts | 37° |
| 2026-05-07 11:12 | 47.76607 | 16.47643 | 6351 ft | 299 kts | 38° |
| 2026-05-07 11:12 | 47.78261 | 16.49500 | 5945 ft | 297 kts | 38° |
| 2026-05-07 11:13 | 47.79909 | 16.51352 | 5475 ft | 297 kts | 38° |
| 2026-05-07 11:13 | 47.81536 | 16.53181 | 5140 ft | 292 kts | 38° |
| 2026-05-07 11:13 | 47.83160 | 16.55010 | 4713 ft | 290 kts | 39° |
| 2026-05-07 11:13 | 47.84720 | 16.56762 | 4443 ft | 272 kts | 39° |
| 2026-05-07 11:14 | 47.86175 | 16.58393 | 4317 ft | 252 kts | 39° |
| 2026-05-07 11:14 | 47.87522 | 16.59906 | 4199 ft | 234 kts | 40° |
| 2026-05-07 11:14 | 47.88782 | 16.61325 | 4105 ft | 224 kts | 40° |
| 2026-05-07 11:14 | 47.90023 | 16.62729 | 4012 ft | 223 kts | 40° |
| 2026-05-07 11:15 | 47.91253 | 16.64119 | 3915 ft | 221 kts | 38° |
| 2026-05-07 11:15 | 47.92611 | 16.65089 | 3847 ft | 218 kts | 15° |
| 2026-05-07 11:15 | 47.94113 | 16.65267 | 3660 ft | 216 kts | 352° |
| 2026-05-07 11:15 | 47.95573 | 16.64736 | 3395 ft | 217 kts | 343° |
| 2026-05-07 11:16 | 47.97023 | 16.64123 | 3126 ft | 217 kts | 343° |
| 2026-05-07 11:16 | 47.98459 | 16.63519 | 2874 ft | 212 kts | 343° |
| 2026-05-07 11:16 | 47.99875 | 16.62923 | 2556 ft | 209 kts | 343° |
| 2026-05-07 11:16 | 48.01221 | 16.62357 | 2287 ft | 194 kts | 344° |
| 2026-05-07 11:17 | 48.02494 | 16.61821 | 2038 ft | 183 kts | 344° |
| 2026-05-07 11:17 | 48.03675 | 16.61323 | 1817 ft | 172 kts | 344° |
| 2026-05-07 11:17 | 48.04800 | 16.60849 | 1557 ft | 163 kts | 343° |
| 2026-05-07 11:17 | 48.05852 | 16.60405 | 1323 ft | 152 kts | 342° |
| 2026-05-07 11:18 | 48.06842 | 16.60002 | 1039 ft | 144 kts | 339° |
| 2026-05-07 11:18 | 48.07779 | 16.59605 | 841 ft | 135 kts | 339° |
| 2026-05-07 11:18 | 48.08651 | 16.59231 | 698 ft | 128 kts | 339° |
| 2026-05-07 11:18 | 48.09472 | 16.58886 | 618 ft | 112 kts | 339° |
| 2026-05-07 11:19 | 48.10088 | 16.58616 | 612 ft | 69 kts | 344° |
| 2026-05-07 11:19 | 48.10463 | 16.58457 | 615 ft | 46 kts | 343° |
| 2026-05-07 11:19 | 48.10660 | 16.58351 | 613 ft | 23 kts | 332° |
| 2026-05-07 11:19 | 48.10781 | 16.58204 | 613 ft | 22 kts | 314° |
| 2026-05-07 11:20 | 48.10883 | 16.58044 | 622 ft | 19 kts | 314° |
| 2026-05-07 11:20 | 48.11004 | 16.57950 | 615 ft | 23 kts | 343° |
| 2026-05-07 11:20 | 48.11160 | 16.57884 | 614 ft | 24 kts | 345° |
| 2026-05-07 11:20 | 48.11325 | 16.57814 | 622 ft | 25 kts | 343° |
| 2026-05-07 11:21 | 48.11498 | 16.57742 | 616 ft | 26 kts | 344° |
| 2026-05-07 11:21 | 48.11674 | 16.57667 | 612 ft | 26 kts | 344° |
| 2026-05-07 11:21 | 48.11813 | 16.57604 | 613 ft | 14 kts | 331° |
| 2026-05-07 11:21 | 48.11820 | 16.57463 | 610 ft | 17 kts | 252° |
| 2026-05-07 11:22 | 48.11832 | 16.57288 | 615 ft | 18 kts | 294° |
| 2026-05-07 11:22 | 48.11863 | 16.57123 | 620 ft | 17 kts | 292° |
| 2026-05-07 11:22 | 48.11914 | 16.56959 | 615 ft | 18 kts | 296° |
| 2026-05-07 11:22 | 48.11956 | 16.56821 | 615 ft | 7 kts | 279° |
| 2026-05-07 11:23 | 48.11929 | 16.56791 | 610 ft | 7 kts | 202° |
| 2026-05-07 11:23 | 48.11904 | 16.56772 | 616 ft | 2 kts | 206° |
| 2026-05-07 11:23 | 48.11897 | 16.56768 | 614 ft | 0 kts | 206° |